Time;durP1;ratioP1;P1;durP2;ratioP2;P2;SDS_P1;SDS_P2;PMS_P1;PMS_P2;Temp;Humidity;BMP_temperature;BMP_pressure;BME280_temperature;BME280_humidity;BME280_pressure;Samples;Min_cycle;Max_cycle;Signal;HPM_P1;HPM_P2
2022/10/16 00:00:12;;;;;;;4.73;1.50;;;17.50;99.90;;;;;;20913058;28;20242;-72
2022/10/16 00:10:14;;;;;;;4.60;1.20;;;17.50;99.90;;;;;;20911548;28;20239;-72
2022/10/16 00:20:16;;;;;;;3.37;1.60;;;17.50;99.90;;;;;;20925595;28;20241;-72
2022/10/16 00:30:18;;;;;;;2.07;1.50;;;17.50;99.90;;;;;;20926100;28;20215;-72
2022/10/16 00:40:19;;;;;;;3.63;1.40;;;17.50;99.90;;;;;;20926690;28;20232;-72
2022/10/16 00:50:24;;;;;;;1.93;1.40;;;17.40;99.90;;;;;;20926171;28;20232;-72
2022/10/16 01:00:26;;;;;;;1.83;1.50;;;17.40;99.90;;;;;;20924764;28;20233;-72
2022/10/16 01:11:06;;;;;;;3.53;1.73;;;17.40;99.90;;;;;;20923897;28;20296;-73
2022/10/16 01:21:21;;;;;;;4.70;1.97;;;17.30;99.90;;;;;;20923602;28;20707;-71
2022/10/16 01:31:29;;;;;;;2.80;1.93;;;17.20;99.90;;;;;;20921028;28;20211;-73
2022/10/16 01:41:36;;;;;;;3.70;1.13;;;17.20;99.90;;;;;;20921613;28;20235;-73
2022/10/16 01:51:39;;;;;;;2.03;1.10;;;17.20;99.90;;;;;;20921410;28;20537;-71
2022/10/16 02:01:47;;;;;;;1.30;1.10;;;17.10;99.90;;;;;;20920099;28;20233;-72
2022/10/16 02:11:53;;;;;;;1.60;1.37;;;17.10;99.90;;;;;;20919101;28;20246;-72
2022/10/16 02:22:03;;;;;;;1.37;1.20;;;17.10;99.90;;;;;;20918882;28;20766;-72
2022/10/16 02:32:07;;;;;;;3.57;1.30;;;17.10;99.90;;;;;;20918109;28;20659;-73
2022/10/16 02:42:14;;;;;;;4.07;1.40;;;17.10;99.90;;;;;;20916429;28;20561;-73
2022/10/16 02:52:15;;;;;;;3.37;1.80;;;17.10;99.90;;;;;;20916245;28;20259;-72
2022/10/16 03:02:17;;;;;;;3.30;1.80;;;17.10;99.90;;;;;;20915730;28;20237;-72
2022/10/16 03:12:19;;;;;;;3.97;1.67;;;17.10;99.90;;;;;;20914813;28;20623;-72
2022/10/16 03:22:21;;;;;;;5.23;1.73;;;17.10;99.90;;;;;;20913476;28;20277;-73
2022/10/16 03:32:24;;;;;;;7.83;1.70;;;17.00;99.90;;;;;;20912781;28;20273;-72
2022/10/16 03:42:26;;;;;;;2.37;1.33;;;17.00;99.90;;;;;;20913225;28;20234;-73
2022/10/16 03:52:28;;;;;;;1.73;1.63;;;17.00;99.90;;;;;;20911711;28;20674;-73
2022/10/16 04:02:30;;;;;;;2.73;1.80;;;17.00;99.90;;;;;;20912136;28;20303;-72
2022/10/16 04:12:31;;;;;;;3.07;2.00;;;16.90;99.90;;;;;;20911875;28;20635;-72
2022/10/16 04:22:33;;;;;;;4.00;2.00;;;16.80;99.90;;;;;;20911416;28;20698;-72
2022/10/16 04:32:35;;;;;;;2.67;2.10;;;16.80;99.90;;;;;;20911241;28;20239;-72
2022/10/16 04:42:36;;;;;;;3.70;2.10;;;16.80;99.90;;;;;;20910836;28;20294;-72
2022/10/16 04:52:38;;;;;;;4.07;2.20;;;16.90;99.90;;;;;;20910205;28;20682;-72
2022/10/16 05:02:40;;;;;;;11.97;2.20;;;16.80;99.90;;;;;;20917366;28;20244;-72
2022/10/16 05:12:42;;;;;;;1.97;1.80;;;16.80;99.90;;;;;;20923981;28;20233;-73
2022/10/16 05:22:43;;;;;;;10.80;2.70;;;16.80;99.90;;;;;;20923094;28;20700;-72
2022/10/16 05:32:49;;;;;;;4.73;2.00;;;16.80;99.90;;;;;;20922636;28;20262;-72
2022/10/16 05:42:55;;;;;;;7.60;2.60;;;16.80;99.90;;;;;;20921804;28;20269;-72
2022/10/16 05:52:57;;;;;;;3.13;1.97;;;16.70;99.90;;;;;;20921131;28;20264;-72
2022/10/16 06:02:58;;;;;;;2.47;2.00;;;16.80;99.90;;;;;;20920495;28;20232;-72
2022/10/16 06:13:00;;;;;;;4.37;1.63;;;16.70;99.90;;;;;;20918513;28;20228;-72
2022/10/16 06:23:03;;;;;;;3.50;2.03;;;16.80;99.90;;;;;;20918489;28;20240;-73
2022/10/16 06:33:05;;;;;;;4.53;2.30;;;16.80;99.90;;;;;;20918059;28;20250;-72
2022/10/16 06:43:07;;;;;;;6.03;2.20;;;16.80;99.90;;;;;;20916753;28;20686;-72
2022/10/16 06:53:08;;;;;;;5.27;3.50;;;16.80;99.90;;;;;;20915620;28;20204;-73
2022/10/16 07:03:10;;;;;;;4.97;2.07;;;16.80;99.90;;;;;;20913100;28;20237;-74
2022/10/16 07:13:15;;;;;;;3.33;1.90;;;16.80;99.90;;;;;;20847423;28;20232;-73
2022/10/16 07:23:17;;;;;;;5.20;2.20;;;16.80;99.90;;;;;;20831423;28;20233;-71
2022/10/16 07:33:19;;;;;;;9.67;3.27;;;16.90;99.90;;;;;;20831087;28;20213;-73
2022/10/16 07:43:20;;;;;;;7.10;2.93;;;16.90;99.90;;;;;;20825579;28;20527;-72
2022/10/16 07:53:22;;;;;;;4.97;2.70;;;17.40;99.90;;;;;;20893112;28;20275;-72
2022/10/16 08:03:27;;;;;;;7.40;2.77;;;17.30;99.90;;;;;;20911319;28;20263;-73
2022/10/16 08:13:29;;;;;;;7.80;2.90;;;17.30;99.90;;;;;;20910975;28;20232;-71
2022/10/16 08:23:33;;;;;;;5.37;2.80;;;17.30;99.90;;;;;;20909545;28;20237;-72
2022/10/16 08:33:36;;;;;;;7.03;2.40;;;17.40;99.90;;;;;;20912634;28;20260;-72
2022/10/16 08:43:54;;;;;;;4.73;2.57;;;17.50;99.90;;;;;;20926642;28;20233;-75
2022/10/16 08:54:06;;;;;;;4.00;2.10;;;17.60;99.90;;;;;;20925885;28;20663;-78
2022/10/16 09:04:50;;;;;;;3.50;2.00;;;17.90;99.90;;;;;;20925003;28;20281;-74
2022/10/16 09:15:39;;;;;;;4.33;3.43;;;18.10;99.90;;;;;;20914881;28;20705;-69
2022/10/16 09:25:49;;;;;;;4.63;2.33;;;18.20;99.90;;;;;;20920741;28;20492;-68
2022/10/16 09:35:54;;;;;;;4.60;2.30;;;18.50;99.90;;;;;;20875784;28;20212;-72
2022/10/16 09:46:04;;;;;;;5.07;2.70;;;18.40;99.90;;;;;;20872635;28;20478;-70
2022/10/16 09:56:06;;;;;;;4.20;2.63;;;18.80;99.90;;;;;;20925211;28;20604;-75
2022/10/16 10:06:28;;;;;;;2.97;2.00;;;18.50;99.90;;;;;;20920199;28;20229;-74
2022/10/16 10:16:30;;;;;;;7.77;3.00;;;18.50;99.90;;;;;;20919071;28;20274;-73
2022/10/16 10:26:32;;;;;;;15.40;3.23;;;18.40;99.90;;;;;;20917499;28;20285;-74
2022/10/16 10:36:44;;;;;;;9.07;3.47;;;18.30;99.90;;;;;;20915762;28;20233;-73
2022/10/16 10:46:56;;;;;;;5.80;2.40;;;18.20;99.90;;;;;;20916372;28;20250;-72
2022/10/16 10:57:23;;;;;;;8.77;2.20;;;18.30;99.90;;;;;;20914941;28;20271;-74
2022/10/16 11:07:29;;;;;;;4.13;2.50;;;18.50;99.90;;;;;;20914244;28;20322;-72
2022/10/16 11:17:41;;;;;;;5.43;1.97;;;18.80;99.90;;;;;;20910790;28;20297;-72
2022/10/16 11:28:09;;;;;;;2.10;1.77;;;19.10;99.90;;;;;;20913510;28;20246;-70
2022/10/16 11:38:23;;;;;;;2.47;1.70;;;19.30;99.90;;;;;;20903191;28;20278;-72
2022/10/16 11:48:32;;;;;;;3.07;1.57;;;19.60;99.90;;;;;;20859904;28;20578;-72
2022/10/16 11:58:49;;;;;;;6.10;2.30;;;20.30;99.90;;;;;;20829239;28;20236;-72
2022/10/16 12:08:54;;;;;;;6.67;2.20;;;20.30;99.90;;;;;;20830397;28;20647;-68
2022/10/16 12:19:16;;;;;;;3.10;1.67;;;20.60;99.90;;;;;;20844702;28;20232;-71
2022/10/16 12:29:28;;;;;;;10.63;2.10;;;20.80;99.90;;;;;;20865919;28;20249;-69
2022/10/16 12:39:30;;;;;;;5.37;2.00;;;21.10;99.90;;;;;;20923804;28;20269;-68
2022/10/16 12:49:37;;;;;;;14.23;1.93;;;21.30;99.90;;;;;;20921460;28;20277;-77
2022/10/16 13:00:10;;;;;;;3.10;1.60;;;21.30;99.90;;;;;;20923598;28;20235;-70
2022/10/16 13:10:39;;;;;;;2.90;1.70;;;21.30;99.90;;;;;;20853686;28;20232;-69
2022/10/16 13:21:00;;;;;;;3.60;1.60;;;21.20;99.90;;;;;;20921566;28;20441;-64
2022/10/16 13:31:02;;;;;;;9.67;2.70;;;21.10;99.90;;;;;;20918237;28;20204;-69
2022/10/16 13:41:12;;;;;;;6.37;2.17;;;20.90;99.90;;;;;;20918302;28;20256;-74
2022/10/16 13:51:16;;;;;;;3.10;1.80;;;20.90;99.90;;;;;;20852192;28;20209;-76
2022/10/16 14:01:23;;;;;;;6.03;1.93;;;20.80;99.90;;;;;;20838544;28;20810;-76
2022/10/16 14:11:29;;;;;;;6.50;2.80;;;20.80;99.90;;;;;;20867189;28;20307;-70
2022/10/16 14:21:31;;;;;;;6.70;2.37;;;20.80;99.90;;;;;;20915697;28;20690;-78
2022/10/16 14:31:36;;;;;;;3.93;2.20;;;20.90;99.90;;;;;;20916816;28;20258;-72
2022/10/16 14:41:50;;;;;;;9.93;1.73;;;21.00;99.90;;;;;;20917834;28;20228;-72
2022/10/16 14:51:52;;;;;;;4.37;1.70;;;20.90;99.90;;;;;;20916287;28;20337;-73
2022/10/16 15:01:54;;;;;;;7.50;2.10;;;20.80;99.90;;;;;;20917137;28;20289;-69
2022/10/16 15:11:55;;;;;;;3.67;2.20;;;20.80;99.90;;;;;;20914997;28;20239;-69
2022/10/16 15:21:57;;;;;;;7.43;2.07;;;20.60;99.90;;;;;;20914067;28;20281;-71
2022/10/16 15:31:59;;;;;;;6.37;2.00;;;20.50;99.90;;;;;;20913890;28;20224;-73
2022/10/16 15:42:00;;;;;;;5.23;2.00;;;20.40;99.90;;;;;;20913773;28;20235;-71
2022/10/16 15:52:03;;;;;;;5.13;2.57;;;20.20;99.90;;;;;;20841425;28;20220;-69
2022/10/16 16:02:05;;;;;;;5.30;3.10;;;20.10;99.90;;;;;;20829301;28;20235;-70
2022/10/16 16:12:07;;;;;;;6.97;3.20;;;20.00;99.90;;;;;;20828983;28;20609;-71
2022/10/16 16:22:08;;;;;;;7.73;3.70;;;19.90;99.90;;;;;;20828248;28;20263;-69
2022/10/16 16:32:13;;;;;;;8.03;3.30;;;19.80;99.90;;;;;;20828511;28;20240;-69
2022/10/16 16:42:16;;;;;;;4.27;3.10;;;19.70;99.90;;;;;;20827511;28;20290;-73
2022/10/16 16:52:17;;;;;;;7.07;3.60;;;19.60;99.90;;;;;;20827199;28;20208;-75
2022/10/16 17:02:19;;;;;;;7.97;3.87;;;19.40;99.90;;;;;;20840091;28;20263;-68
2022/10/16 17:12:21;;;;;;;6.63;3.90;;;19.30;99.90;;;;;;20841523;28;20599;-69
2022/10/16 17:22:23;;;;;;;12.17;3.90;;;19.10;99.90;;;;;;20877498;28;20235;-65
2022/10/16 17:32:26;;;;;;;12.77;6.03;;;19.00;99.90;;;;;;20889359;28;20218;-67
2022/10/16 17:42:28;;;;;;;22.03;8.80;;;18.80;99.90;;;;;;20920759;28;20243;-72
2022/10/16 17:52:30;;;;;;;10.70;6.53;;;18.60;99.90;;;;;;20920969;28;20588;-67
2022/10/16 18:02:32;;;;;;;11.20;5.63;;;18.40;99.90;;;;;;20921246;28;20709;-66
2022/10/16 18:12:34;;;;;;;15.97;8.30;;;18.20;99.90;;;;;;20900776;28;20269;-65
2022/10/16 18:22:36;;;;;;;10.27;6.60;;;18.10;99.90;;;;;;20872380;28;20242;-69
2022/10/16 18:32:38;;;;;;;11.67;6.10;;;17.90;99.90;;;;;;20909525;28;20650;-67
2022/10/16 18:42:39;;;;;;;11.27;5.73;;;17.70;99.90;;;;;;20999022;28;20314;-66
2022/10/16 18:52:47;;;;;;;7.30;5.40;;;17.50;99.90;;;;;;20998930;28;20205;-71
2022/10/16 19:02:49;;;;;;;12.53;5.63;;;17.50;99.90;;;;;;20998037;28;20293;-70
2022/10/16 19:12:50;;;;;;;12.33;5.43;;;17.20;99.90;;;;;;20929336;28;20295;-70
2022/10/16 19:22:55;;;;;;;12.47;5.50;;;17.20;99.90;;;;;;20913363;28;20290;-70
2022/10/16 19:32:57;;;;;;;8.90;4.97;;;17.10;99.90;;;;;;20913976;28;20617;-69
2022/10/16 19:42:59;;;;;;;12.00;5.30;;;17.10;99.90;;;;;;20913112;28;20589;-70
2022/10/16 19:53:00;;;;;;;9.70;5.30;;;16.90;99.90;;;;;;20912245;28;20201;-70
2022/10/16 20:03:02;;;;;;;8.80;5.33;;;16.90;99.90;;;;;;20912442;28;20655;-70
2022/10/16 20:13:04;;;;;;;8.70;5.97;;;16.80;99.90;;;;;;20903186;28;20283;-70
2022/10/16 20:23:06;;;;;;;10.37;4.93;;;16.70;99.90;;;;;;20911797;28;20278;-70
2022/10/16 20:33:08;;;;;;;11.73;5.27;;;16.60;99.90;;;;;;20918718;28;20254;-70
2022/10/16 20:43:16;;;;;;;9.67;6.17;;;16.60;99.90;;;;;;20924904;28;20240;-70
2022/10/16 20:53:18;;;;;;;9.33;6.10;;;16.40;99.90;;;;;;20898433;28;20623;-67
2022/10/16 21:03:19;;;;;;;9.87;5.43;;;16.40;99.90;;;;;;20914221;28;20228;-67
2022/10/16 21:13:21;;;;;;;12.10;5.77;;;16.30;99.90;;;;;;20919718;28;20702;-65
2022/10/16 21:23:27;;;;;;;11.40;5.83;;;16.20;99.90;;;;;;20888164;28;20775;-68
2022/10/16 21:33:29;;;;;;;9.03;6.03;;;16.10;99.90;;;;;;20920647;28;20682;-69
2022/10/16 21:43:32;;;;;;;9.47;5.10;;;16.00;99.90;;;;;;20922702;28;20289;-68
2022/10/16 21:53:33;;;;;;;7.93;4.50;;;16.10;99.90;;;;;;20918359;28;20208;-69
2022/10/16 22:03:35;;;;;;;10.03;4.30;;;16.00;99.90;;;;;;20920913;28;20239;-65
2022/10/16 22:13:38;;;;;;;14.87;4.40;;;15.90;99.90;;;;;;20919736;28;20286;-67
2022/10/16 22:23:39;;;;;;;7.13;4.43;;;15.70;99.90;;;;;;20907861;28;20235;-68
2022/10/16 22:33:42;;;;;;;12.70;4.87;;;15.70;99.90;;;;;;20916311;28;20304;-68
2022/10/16 22:43:46;;;;;;;12.37;4.47;;;15.70;99.90;;;;;;20917490;28;20235;-67
2022/10/16 22:53:49;;;;;;;12.03;4.90;;;15.70;99.90;;;;;;20916445;28;20238;-67
2022/10/16 23:03:50;;;;;;;20.73;6.13;;;15.60;99.90;;;;;;20916278;28;20283;-68
2022/10/16 23:13:52;;;;;;;10.37;5.10;;;15.60;99.90;;;;;;20915765;28;20239;-65
2022/10/16 23:23:54;;;;;;;11.37;4.73;;;15.50;99.90;;;;;;20915061;28;20231;-68
2022/10/16 23:33:56;;;;;;;10.80;5.90;;;15.50;99.90;;;;;;20914216;28;20253;-68
2022/10/16 23:43:58;;;;;;;23.73;6.23;;;15.40;99.90;;;;;;20913158;28;20267;-69
2022/10/16 23:54:00;;;;;;;38.33;6.33;;;15.50;99.90;;;;;;20912744;28;20272;-66
